createdAt,value
2019-05-14T00:00:18.240Z,0.80
2019-05-14T00:02:48.119Z,1.02
2019-05-14T00:05:17.990Z,1.02
2019-05-14T00:07:47.793Z,1.22
2019-05-14T00:10:17.676Z,0.80
2019-05-14T00:12:47.499Z,0.80
2019-05-14T00:15:17.386Z,0.80
2019-05-14T00:17:47.182Z,1.12
2019-05-14T00:20:16.985Z,0.75
2019-05-14T00:22:46.710Z,0.98
2019-05-14T00:25:16.518Z,1.10
2019-05-14T00:27:46.366Z,1.32
2019-05-14T00:30:17.411Z,1.22
2019-05-14T00:32:47.219Z,0.85
2019-05-14T00:35:17.110Z,0.90
2019-05-14T00:37:46.836Z,1.15
2019-05-14T00:40:16.726Z,0.88
2019-05-14T00:42:46.615Z,0.80
2019-05-14T00:45:16.545Z,1.00
2019-05-14T00:47:46.457Z,0.90
2019-05-14T00:50:16.393Z,0.75
2019-05-14T00:52:47.116Z,0.90
2019-05-14T00:55:16.929Z,1.10
2019-05-14T00:57:46.643Z,0.95
2019-05-14T01:00:17.679Z,0.90
2019-05-14T01:02:47.446Z,1.10
2019-05-14T01:05:17.150Z,1.02
2019-05-14T01:07:46.957Z,0.88
2019-05-14T01:10:16.800Z,1.00
2019-05-14T01:12:46.708Z,1.10
2019-05-14T01:15:16.702Z,1.07
2019-05-14T01:17:46.506Z,0.82
2019-05-14T01:20:16.389Z,0.97
2019-05-14T01:22:46.133Z,1.00
2019-05-14T01:25:15.924Z,1.20
2019-05-14T01:27:45.606Z,1.10
2019-05-14T01:30:15.409Z,1.10
2019-05-14T01:32:45.106Z,1.27
2019-05-14T01:35:14.913Z,0.82
2019-05-14T01:37:44.681Z,1.00
2019-05-14T01:40:14.494Z,0.90
2019-05-14T01:42:44.161Z,0.80
2019-05-14T01:45:24.408Z,1.10
2019-05-14T01:47:52.007Z,1.10
2019-05-14T01:50:21.585Z,1.17
2019-05-14T01:52:52.003Z,1.27
2019-05-14T01:55:22.078Z,1.20
2019-05-14T01:57:51.981Z,1.32
2019-05-14T02:00:23.082Z,1.20
2019-05-14T02:02:53.830Z,1.20
2019-05-14T02:05:23.565Z,1.40
2019-05-14T02:07:53.253Z,1.03
2019-05-14T02:10:23.076Z,1.30
2019-05-14T02:12:52.753Z,1.55
2019-05-14T02:15:35.247Z,1.57
2019-05-14T02:17:53.925Z,1.37
2019-05-14T02:20:23.596Z,1.37
2019-05-14T02:22:53.289Z,1.60
2019-05-14T02:25:22.964Z,1.47
2019-05-14T02:27:52.645Z,1.37
2019-05-14T02:30:32.044Z,1.40
2019-05-14T02:32:53.772Z,1.40
2019-05-14T02:35:23.438Z,1.45
2019-05-14T02:37:53.273Z,1.60
2019-05-14T02:40:23.013Z,1.42
2019-05-14T02:42:52.690Z,1.72
2019-05-14T02:45:22.533Z,1.60
2019-05-14T02:47:52.206Z,1.60
2019-05-14T02:50:21.899Z,1.85
2019-05-14T02:52:51.572Z,1.40
2019-05-14T02:55:21.316Z,1.40
2019-05-14T02:57:50.985Z,1.52
2019-05-14T03:00:21.006Z,1.55
2019-05-14T03:02:50.653Z,1.40
2019-05-14T03:05:20.474Z,1.83
2019-05-14T03:07:50.369Z,1.70
2019-05-14T03:10:20.188Z,2.00
2019-05-14T03:12:50.371Z,2.30
2019-05-14T03:15:21.491Z,1.90
2019-05-14T03:17:51.247Z,2.00
2019-05-14T03:20:21.095Z,2.00
2019-05-14T03:23:02.734Z,2.30
2019-05-14T03:25:22.647Z,2.05
2019-05-14T03:27:52.313Z,2.10
2019-05-14T03:30:23.407Z,1.67
2019-05-14T03:32:54.005Z,1.90
2019-05-14T03:35:33.264Z,1.80
2019-05-14T03:37:56.321Z,1.67
2019-05-14T03:40:29.403Z,2.22
2019-05-14T03:42:59.965Z,2.30
2019-05-14T03:45:30.264Z,2.47
2019-05-14T03:48:00.236Z,2.37
2019-05-14T03:50:30.080Z,2.22
2019-05-14T03:53:01.399Z,2.30
2019-05-14T03:55:31.325Z,2.12
2019-05-14T03:58:01.057Z,2.43
2019-05-14T04:00:53.254Z,2.22
2019-05-14T04:03:23.270Z,2.37
2019-05-14T04:05:53.879Z,2.80
2019-05-14T04:08:25.286Z,2.00
2019-05-14T04:10:58.966Z,2.02
2019-05-14T04:13:30.418Z,2.55
2019-05-14T04:16:02.453Z,2.20
2019-05-14T04:18:35.731Z,2.37
2019-05-14T04:21:09.554Z,2.60
2019-05-14T04:23:39.562Z,2.52
2019-05-14T04:26:11.313Z,2.30
2019-05-14T04:28:42.944Z,2.10
2019-05-14T04:31:13.874Z,2.27
2019-05-14T04:33:49.541Z,2.62
2019-05-14T04:36:19.446Z,2.20
2019-05-14T04:38:54.795Z,2.10
2019-05-14T04:41:22.128Z,2.20
2019-05-14T04:43:51.880Z,2.00
2019-05-14T04:46:21.645Z,2.50
2019-05-14T04:48:51.485Z,2.22
2019-05-14T04:51:21.233Z,2.30
2019-05-14T04:53:51.054Z,2.17
2019-05-14T04:56:20.751Z,2.22
2019-05-14T04:58:51.421Z,2.25
2019-05-14T05:01:21.202Z,2.58
2019-05-14T05:03:51.133Z,2.08
2019-05-14T05:06:20.963Z,2.10
2019-05-14T05:08:50.672Z,2.00
2019-05-14T05:11:21.229Z,1.75
2019-05-14T05:13:51.482Z,2.08
2019-05-14T05:16:21.162Z,2.50
2019-05-14T05:18:50.845Z,2.08
2019-05-14T05:21:20.515Z,2.45
2019-05-14T05:23:50.214Z,2.10
2019-05-14T05:26:19.885Z,1.67
2019-05-14T05:29:02.937Z,2.15
2019-05-14T05:31:22.085Z,1.98
2019-05-14T05:33:51.793Z,2.05
2019-05-14T05:36:21.466Z,1.98
2019-05-14T05:38:51.161Z,1.82
2019-05-14T05:41:20.909Z,1.72
2019-05-14T05:43:50.589Z,1.60
2019-05-14T05:46:20.332Z,2.02
2019-05-14T05:48:50.990Z,2.45
2019-05-14T05:51:20.729Z,2.15
2019-05-14T05:53:50.417Z,2.05
2019-05-14T05:56:20.229Z,2.12
2019-05-14T05:58:49.915Z,1.87
2019-05-14T06:01:19.911Z,2.30
2019-05-14T06:03:49.777Z,2.08
2019-05-14T06:06:19.591Z,2.08
2019-05-14T06:08:49.596Z,2.25
2019-05-14T06:11:19.681Z,2.02
2019-05-14T06:13:49.489Z,1.95
2019-05-14T06:16:19.153Z,2.02
2019-05-14T06:18:48.889Z,2.20
2019-05-14T06:21:19.443Z,2.37
2019-05-14T06:23:49.624Z,2.30
2019-05-14T06:26:19.689Z,1.87
2019-05-14T06:28:49.944Z,2.00
2019-05-14T06:31:19.816Z,2.20
2019-05-14T06:33:50.578Z,2.20
2019-05-14T06:36:20.244Z,1.70
2019-05-14T06:38:50.026Z,2.12
2019-05-14T06:41:19.708Z,2.10
2019-05-14T06:43:50.484Z,2.08
2019-05-14T06:46:20.144Z,1.95
2019-05-14T06:48:49.902Z,2.17
2019-05-14T06:51:20.140Z,1.72
2019-05-14T06:53:50.258Z,1.87
2019-05-14T06:56:21.844Z,2.40
2019-05-14T06:58:51.613Z,1.87
2019-05-14T07:01:21.369Z,2.27
2019-05-14T07:03:51.041Z,1.72
2019-05-14T07:06:20.727Z,2.10
2019-05-14T07:08:52.754Z,2.08
2019-05-14T07:11:22.742Z,1.60
2019-05-14T07:13:52.486Z,1.85
2019-05-14T07:16:22.202Z,2.15
2019-05-14T07:18:54.070Z,1.80
2019-05-14T07:21:24.315Z,1.92
2019-05-14T07:23:54.072Z,1.77
2019-05-14T07:26:23.763Z,1.70
2019-05-14T07:28:53.509Z,1.80
2019-05-14T07:31:23.430Z,2.27
2019-05-14T07:33:53.239Z,1.80
2019-05-14T07:36:23.043Z,1.75
2019-05-14T07:38:56.178Z,2.22
2019-05-14T07:41:24.329Z,1.80
2019-05-14T07:43:54.185Z,2.17
2019-05-14T07:46:23.993Z,2.12
2019-05-14T07:49:04.268Z,2.17
2019-05-14T07:51:25.316Z,1.95
2019-05-14T07:53:55.161Z,1.90
2019-05-14T07:56:24.920Z,1.90
2019-05-14T07:58:54.790Z,2.08
2019-05-14T08:01:24.595Z,1.87
2019-05-14T08:03:54.545Z,2.10
2019-05-14T08:06:24.310Z,1.80
2019-05-14T08:08:54.251Z,2.17
2019-05-14T08:11:24.067Z,2.10
2019-05-14T08:13:53.885Z,1.95
2019-05-14T08:16:23.581Z,1.85
2019-05-14T08:18:53.240Z,2.20
2019-05-14T08:21:22.994Z,1.92
2019-05-14T08:23:52.752Z,2.00
2019-05-14T08:26:22.428Z,2.17
2019-05-14T08:28:52.204Z,2.00
2019-05-14T08:31:21.885Z,2.17
2019-05-14T08:33:51.600Z,1.65
2019-05-14T08:36:21.334Z,2.15
2019-05-14T08:38:51.077Z,2.12
2019-05-14T08:41:20.772Z,2.15
2019-05-14T08:43:51.518Z,2.10
2019-05-14T08:46:21.197Z,2.50
2019-05-14T08:48:50.888Z,2.12
2019-05-14T08:51:20.566Z,2.00
2019-05-14T08:53:50.721Z,2.37
2019-05-14T08:56:20.511Z,2.33
2019-05-14T08:58:50.250Z,2.10
2019-05-14T09:01:20.021Z,1.95
2019-05-14T09:03:49.947Z,2.33
2019-05-14T09:06:19.816Z,1.60
2019-05-14T09:08:50.024Z,1.57
2019-05-14T09:11:24.257Z,1.77
2019-05-14T09:13:51.356Z,1.77
2019-05-14T09:16:37.090Z,1.80
2019-05-14T09:18:52.472Z,2.10
2019-05-14T09:21:22.146Z,1.62
2019-05-14T09:23:51.830Z,1.80
2019-05-14T09:26:21.577Z,1.87
2019-05-14T09:28:51.259Z,1.85
2019-05-14T09:31:20.929Z,1.70
2019-05-14T09:33:50.631Z,1.47
2019-05-14T09:36:23.927Z,1.62
2019-05-14T09:38:51.685Z,2.00
2019-05-14T09:41:21.535Z,1.67
2019-05-14T09:43:51.313Z,1.92
2019-05-14T09:46:20.998Z,1.32
2019-05-14T09:48:50.817Z,1.35
2019-05-14T09:51:20.505Z,1.52
2019-05-14T09:53:50.188Z,1.47
2019-05-14T09:56:19.959Z,1.57
2019-05-14T09:58:49.898Z,1.50
2019-05-14T10:01:19.816Z,1.57
2019-05-14T10:03:49.840Z,1.60
2019-05-14T10:06:20.557Z,1.15
2019-05-14T10:08:50.778Z,1.47
2019-05-14T10:11:20.545Z,1.50
2019-05-14T10:13:50.211Z,1.72
2019-05-14T10:16:19.890Z,1.65
2019-05-14T10:18:52.707Z,1.20
2019-05-14T10:21:20.938Z,1.30
2019-05-14T10:23:50.682Z,1.30
2019-05-14T10:26:20.357Z,1.47
2019-05-14T10:28:50.025Z,1.30
2019-05-14T10:31:19.781Z,1.30
2019-05-14T10:33:49.570Z,1.40
2019-05-14T10:36:19.563Z,1.47
2019-05-14T10:38:49.370Z,1.25
2019-05-14T10:41:19.064Z,1.40
2019-05-14T10:43:49.693Z,1.10
2019-05-14T10:46:19.834Z,1.25
2019-05-14T10:48:49.517Z,1.37
2019-05-14T10:51:19.198Z,1.02
2019-05-14T10:53:49.245Z,1.10
2019-05-14T10:56:19.794Z,1.40
2019-05-14T10:58:49.589Z,1.55
2019-05-14T11:01:22.027Z,1.40
2019-05-14T11:03:50.784Z,1.25
2019-05-14T11:06:20.549Z,1.30
2019-05-14T11:08:50.226Z,1.40
2019-05-14T11:11:19.983Z,1.45
2019-05-14T11:13:49.649Z,1.20
2019-05-14T11:16:19.409Z,1.35
2019-05-14T11:18:49.998Z,1.10
2019-05-14T11:21:26.390Z,1.20
2019-05-14T11:23:51.269Z,1.27
2019-05-14T11:26:21.029Z,1.45
2019-05-14T11:28:51.672Z,1.30
2019-05-14T11:31:21.493Z,1.12
2019-05-14T11:33:51.343Z,1.20
2019-05-14T11:36:21.152Z,1.37
2019-05-14T11:38:51.151Z,1.25
2019-05-14T11:41:20.990Z,1.20
2019-05-14T11:43:50.753Z,1.10
2019-05-14T11:46:29.657Z,1.00
2019-05-14T11:48:53.009Z,1.30
2019-05-14T11:51:53.098Z,1.12
2019-05-14T11:53:54.128Z,1.10
2019-05-14T11:56:23.882Z,1.22
2019-05-14T11:58:53.625Z,1.52
2019-05-14T12:01:23.356Z,1.00
2019-05-14T12:03:53.200Z,1.20
2019-05-14T12:06:22.857Z,1.30
2019-05-14T12:08:52.615Z,1.05
2019-05-14T12:11:22.378Z,0.93
2019-05-14T12:13:52.128Z,1.05
2019-05-14T12:16:21.866Z,1.12
2019-05-14T12:18:51.618Z,1.07
2019-05-14T12:21:21.286Z,1.22
2019-05-14T12:23:50.989Z,1.42
2019-05-14T12:26:20.722Z,1.30
2019-05-14T12:28:50.407Z,1.15
2019-05-14T12:31:20.192Z,1.12
2019-05-14T12:33:49.969Z,1.20
2019-05-14T12:36:19.690Z,1.40
2019-05-14T12:38:49.421Z,1.60
2019-05-14T12:41:19.652Z,1.00
2019-05-14T12:43:49.504Z,1.10
2019-05-14T12:46:20.132Z,1.27
2019-05-14T12:48:50.161Z,1.10
2019-05-14T12:51:21.076Z,1.00
2019-05-14T12:53:50.761Z,1.00
2019-05-14T12:56:20.442Z,1.30
2019-05-14T12:58:50.212Z,1.07
2019-05-14T13:01:20.251Z,1.32
2019-05-14T13:03:50.213Z,1.25
2019-05-14T13:06:19.965Z,1.20
2019-05-14T13:08:49.693Z,0.88
2019-05-14T13:11:19.435Z,0.90
2019-05-14T13:13:49.314Z,1.00
2019-05-14T13:16:19.569Z,1.10
2019-05-14T13:18:50.224Z,1.20
2019-05-14T13:21:20.140Z,1.10
2019-05-14T13:23:49.822Z,1.42
2019-05-14T13:26:19.564Z,1.02
2019-05-14T13:28:50.701Z,1.20
2019-05-14T13:31:20.895Z,0.80
2019-05-14T13:33:50.578Z,1.47
2019-05-14T13:36:20.910Z,1.32
2019-05-14T13:38:50.854Z,1.20
2019-05-14T13:41:20.600Z,0.90
2019-05-14T13:43:51.395Z,1.20
2019-05-14T13:46:21.073Z,1.02
2019-05-14T13:48:50.748Z,1.00
2019-05-14T13:51:20.432Z,0.88
2019-05-14T13:53:50.204Z,1.00
2019-05-14T13:56:20.850Z,0.80
2019-05-14T13:58:50.526Z,1.10
2019-05-14T14:01:20.202Z,1.20
2019-05-14T14:04:04.276Z,1.10
2019-05-14T14:06:21.360Z,0.90
2019-05-14T14:08:51.097Z,1.10
2019-05-14T14:11:20.912Z,1.20
2019-05-14T14:13:50.730Z,1.10
2019-05-14T14:16:20.413Z,0.98
2019-05-14T14:18:50.445Z,0.90
2019-05-14T14:21:20.241Z,0.93
2019-05-14T14:23:50.027Z,1.10
2019-05-14T14:26:19.912Z,1.15
2019-05-14T14:28:49.814Z,0.95
2019-05-14T14:31:19.778Z,1.15
2019-05-14T14:33:50.512Z,1.05
2019-05-14T14:36:20.298Z,0.90
2019-05-14T14:38:50.079Z,1.05
2019-05-14T14:41:19.946Z,1.30
2019-05-14T14:43:53.278Z,0.80
2019-05-14T14:46:21.072Z,0.90
2019-05-14T14:48:50.767Z,1.00
2019-05-14T14:51:20.515Z,1.25
2019-05-14T14:53:59.342Z,0.90
2019-05-14T14:56:21.652Z,1.10
2019-05-14T14:58:51.393Z,1.00
2019-05-14T15:01:21.073Z,1.37
2019-05-14T15:03:51.284Z,0.90
2019-05-14T15:06:21.140Z,0.80
2019-05-14T15:08:50.814Z,0.82
2019-05-14T15:11:20.522Z,0.70
2019-05-14T15:13:50.191Z,1.15
2019-05-14T15:16:20.356Z,0.85
2019-05-14T15:18:50.124Z,0.93
2019-05-14T15:21:19.896Z,0.80
2019-05-14T15:24:05.567Z,1.00
2019-05-14T15:26:21.775Z,1.45
2019-05-14T15:28:51.454Z,0.98
2019-05-14T15:31:21.390Z,1.00
2019-05-14T15:33:51.198Z,1.10
2019-05-14T15:36:20.969Z,0.95
2019-05-14T15:38:50.657Z,0.93
2019-05-14T15:41:20.694Z,1.00
2019-05-14T15:43:50.465Z,1.07
2019-05-14T15:46:21.289Z,1.22
2019-05-14T15:48:50.970Z,0.90
2019-05-14T15:51:20.638Z,1.25
2019-05-14T15:54:05.473Z,0.98
2019-05-14T15:56:21.688Z,1.10
2019-05-14T15:58:51.369Z,0.93
2019-05-14T16:01:21.043Z,1.00
2019-05-14T16:03:50.801Z,1.00
2019-05-14T16:06:20.472Z,1.00
2019-05-14T16:08:50.230Z,0.80
2019-05-14T16:11:19.931Z,0.80
2019-05-14T16:13:49.684Z,0.70
2019-05-14T16:16:20.405Z,0.78
2019-05-14T16:18:50.096Z,1.10
2019-05-14T16:21:19.837Z,1.10
2019-05-14T16:23:49.588Z,1.00
2019-05-14T16:26:19.329Z,1.05
2019-05-14T16:28:49.077Z,0.82
2019-05-14T16:31:18.836Z,0.95
2019-05-14T16:33:49.663Z,1.15
2019-05-14T16:36:19.653Z,0.90
2019-05-14T16:38:49.347Z,0.70
2019-05-14T16:41:19.009Z,0.93
2019-05-14T16:43:49.537Z,0.82
2019-05-14T16:46:19.448Z,0.70
2019-05-14T16:48:49.211Z,1.00
2019-05-14T16:51:19.406Z,0.93
2019-05-14T16:53:49.310Z,0.93
2019-05-14T16:56:19.427Z,1.20
2019-05-14T16:58:50.083Z,1.10
2019-05-14T17:01:19.769Z,1.20
2019-05-14T17:03:49.745Z,1.02
2019-05-14T17:06:19.800Z,1.10
2019-05-14T17:08:49.546Z,0.80
2019-05-14T17:11:20.365Z,1.00
2019-05-14T17:13:50.113Z,1.00
2019-05-14T17:16:19.887Z,0.70
2019-05-14T17:18:50.520Z,0.70
2019-05-14T17:21:20.273Z,0.95
2019-05-14T17:23:49.953Z,0.80
2019-05-14T17:26:19.712Z,0.60
2019-05-14T17:28:49.378Z,0.82
2019-05-14T17:31:19.383Z,0.78
2019-05-14T17:33:49.498Z,1.10
2019-05-14T17:36:19.393Z,0.78
2019-05-14T17:38:49.432Z,1.10
2019-05-14T17:41:19.693Z,1.00
2019-05-14T17:43:49.605Z,0.90
2019-05-14T17:46:19.350Z,0.70
2019-05-14T17:48:49.180Z,1.10
2019-05-14T17:51:18.879Z,1.10
2019-05-14T17:53:49.703Z,0.98
2019-05-14T17:56:22.732Z,1.00
2019-05-14T17:58:50.828Z,0.80
2019-05-14T18:01:20.620Z,0.70
2019-05-14T18:03:50.458Z,1.15
2019-05-14T18:06:21.125Z,1.02
2019-05-14T18:08:50.794Z,0.95
2019-05-14T18:11:20.481Z,1.25
2019-05-14T18:13:50.233Z,1.40
2019-05-14T18:16:19.918Z,1.60
2019-05-14T18:18:49.711Z,1.70
2019-05-14T18:21:19.620Z,1.27
2019-05-14T18:23:49.491Z,1.27
2019-05-14T18:26:19.249Z,1.27
2019-05-14T18:28:49.031Z,1.30
2019-05-14T18:31:20.317Z,1.75
2019-05-14T18:33:50.113Z,1.42
2019-05-14T18:36:19.877Z,1.20
2019-05-14T18:38:49.627Z,0.80
2019-05-14T18:41:19.538Z,0.98
2019-05-14T18:43:49.222Z,0.62
2019-05-14T18:46:19.330Z,1.00
2019-05-14T18:48:49.170Z,1.07
2019-05-14T18:51:19.963Z,1.35
2019-05-14T18:53:49.734Z,1.25
2019-05-14T18:56:23.969Z,0.98
2019-05-14T18:58:50.777Z,0.70
2019-05-14T19:01:20.446Z,1.00
2019-05-14T19:03:50.130Z,1.00
2019-05-14T19:06:19.972Z,0.98
2019-05-14T19:08:49.658Z,0.85
2019-05-14T19:11:20.491Z,1.05
2019-05-14T19:13:50.160Z,0.80
2019-05-14T19:16:19.834Z,1.27
2019-05-14T19:18:49.517Z,1.00
2019-05-14T19:21:19.193Z,1.10
2019-05-14T19:23:49.219Z,0.88
2019-05-14T19:26:32.969Z,1.12
2019-05-14T19:28:50.664Z,0.90
2019-05-14T19:31:20.460Z,0.70
2019-05-14T19:33:50.244Z,0.95
2019-05-14T19:36:19.922Z,0.90
2019-05-14T19:38:49.609Z,1.00
2019-05-14T19:41:22.559Z,1.00
2019-05-14T19:43:50.661Z,1.00
2019-05-14T19:46:21.453Z,1.60
2019-05-14T19:48:51.909Z,1.00
2019-05-14T19:51:21.665Z,1.00
2019-05-14T19:53:52.610Z,0.80
2019-05-14T19:56:23.586Z,0.90
2019-05-14T19:58:53.258Z,1.05
2019-05-14T20:01:23.143Z,1.20
2019-05-14T20:03:52.897Z,1.00
2019-05-14T20:06:22.573Z,1.20
2019-05-14T20:08:52.310Z,1.00
2019-05-14T20:11:22.117Z,1.12
2019-05-14T20:13:54.115Z,1.20
2019-05-14T20:16:25.509Z,1.20
2019-05-14T20:18:55.208Z,1.45
2019-05-14T20:21:24.957Z,1.20
2019-05-14T20:23:54.806Z,1.50
2019-05-14T20:26:24.555Z,1.55
2019-05-14T20:28:54.238Z,1.20
2019-05-14T20:31:23.912Z,1.72
2019-05-14T20:33:53.689Z,1.12
2019-05-14T20:36:23.448Z,1.62
2019-05-14T20:38:53.233Z,0.98
2019-05-14T20:41:22.925Z,1.32
2019-05-14T20:43:52.593Z,1.55
2019-05-14T20:46:22.282Z,1.40
2019-05-14T20:48:51.948Z,1.20
2019-05-14T20:51:21.633Z,1.22
2019-05-14T20:53:51.322Z,1.00
2019-05-14T20:56:21.000Z,1.70
2019-05-14T20:58:50.689Z,1.40
2019-05-14T21:01:20.364Z,1.25
2019-05-14T21:03:50.036Z,1.10
2019-05-14T21:06:19.728Z,1.05
2019-05-14T21:08:49.408Z,1.20
2019-05-14T21:11:19.308Z,1.30
2019-05-14T21:13:50.382Z,1.22
2019-05-14T21:16:20.249Z,1.40
2019-05-14T21:18:50.025Z,1.10
2019-05-14T21:21:19.784Z,1.27
2019-05-14T21:23:49.514Z,1.37
2019-05-14T21:26:19.599Z,1.45
2019-05-14T21:28:49.404Z,1.45
2019-05-14T21:31:19.088Z,1.30
2019-05-14T21:33:49.738Z,1.10
2019-05-14T21:36:19.612Z,1.40
2019-05-14T21:38:50.980Z,1.47
2019-05-14T21:41:20.721Z,1.50
2019-05-14T21:43:50.419Z,1.57
2019-05-14T21:46:20.096Z,1.70
2019-05-14T21:48:49.765Z,1.30
2019-05-14T21:51:19.508Z,1.60
2019-05-14T21:53:49.187Z,1.60
2019-05-14T21:56:21.891Z,1.82
2019-05-14T21:58:50.381Z,1.40
2019-05-14T22:01:20.341Z,1.67
2019-05-14T22:03:50.162Z,1.42
2019-05-14T22:06:20.868Z,1.52
2019-05-14T22:08:50.541Z,1.45
2019-05-14T22:11:20.314Z,1.82
2019-05-14T22:13:50.069Z,1.57
2019-05-14T22:16:19.825Z,1.40
2019-05-14T22:18:49.521Z,1.60
2019-05-14T22:21:19.265Z,1.40
2019-05-14T22:23:48.945Z,1.65
2019-05-14T22:26:18.767Z,1.47
2019-05-14T22:28:48.503Z,1.75
2019-05-14T22:31:19.272Z,1.70
2019-05-14T22:33:49.090Z,1.80
2019-05-14T22:36:21.386Z,2.10
2019-05-14T22:38:50.268Z,1.90
2019-05-14T22:41:19.937Z,1.62
2019-05-14T22:43:51.461Z,1.62
2019-05-14T22:46:21.258Z,1.30
2019-05-14T22:48:51.670Z,2.00
2019-05-14T22:51:21.586Z,1.80
2019-05-14T22:53:51.352Z,1.95
2019-05-14T22:56:21.084Z,1.50
2019-05-14T22:58:50.866Z,1.70
2019-05-14T23:01:20.556Z,1.67
2019-05-14T23:03:52.550Z,1.82
2019-05-14T23:06:23.343Z,1.70
2019-05-14T23:08:53.030Z,1.80
2019-05-14T23:11:22.705Z,1.75
2019-05-14T23:13:52.398Z,1.90
2019-05-14T23:16:33.071Z,1.55
2019-05-14T23:18:53.485Z,1.60
2019-05-14T23:21:23.229Z,1.52
2019-05-14T23:23:52.931Z,1.90
2019-05-14T23:26:22.675Z,1.62
2019-05-14T23:28:52.428Z,1.70
2019-05-14T23:31:22.178Z,1.47
2019-05-14T23:33:51.926Z,1.40
2019-05-14T23:36:21.833Z,1.35
2019-05-14T23:38:52.190Z,1.75
2019-05-14T23:41:21.850Z,1.70
2019-05-14T23:43:51.608Z,1.20
2019-05-14T23:46:21.280Z,1.35
2019-05-14T23:48:50.972Z,1.60
2019-05-14T23:51:20.649Z,1.70
2019-05-14T23:53:50.338Z,1.30
2019-05-14T23:56:20.012Z,1.40
2019-05-14T23:58:55.694Z,1.30
